createdAt,value
2022-10-31T00:00:27.966Z,4.90
2022-10-31T00:01:27.922Z,4.40
2022-10-31T00:02:27.929Z,4.50
2022-10-31T00:03:27.842Z,4.20
2022-10-31T00:04:27.840Z,4.20
2022-10-31T00:05:27.809Z,4.60
2022-10-31T00:06:27.870Z,4.40
2022-10-31T00:07:27.774Z,4.50
2022-10-31T00:08:27.761Z,4.60
2022-10-31T00:09:27.737Z,4.80
2022-10-31T00:10:27.719Z,4.50
2022-10-31T00:11:27.836Z,4.40
2022-10-31T00:12:27.695Z,4.50
2022-10-31T00:13:27.692Z,4.60
2022-10-31T00:14:27.717Z,4.40
2022-10-31T00:15:27.647Z,4.90
2022-10-31T00:16:27.669Z,5.00
2022-10-31T00:17:27.606Z,5.00
2022-10-31T00:18:27.589Z,4.70
2022-10-31T00:19:27.579Z,4.50
2022-10-31T00:20:27.556Z,4.60
2022-10-31T00:21:27.574Z,4.40
2022-10-31T00:22:27.527Z,4.40
2022-10-31T00:23:27.506Z,4.70
2022-10-31T00:24:27.484Z,4.40
2022-10-31T00:25:27.484Z,4.70
2022-10-31T00:26:27.490Z,4.60
2022-10-31T00:27:27.429Z,4.50
2022-10-31T00:28:27.447Z,4.90
2022-10-31T00:29:27.402Z,4.50
2022-10-31T00:30:27.398Z,4.30
2022-10-31T00:31:27.413Z,4.40
2022-10-31T00:32:27.459Z,4.40
2022-10-31T00:33:27.333Z,4.70
2022-10-31T00:34:27.322Z,4.60
2022-10-31T00:35:27.301Z,4.40
2022-10-31T00:36:27.330Z,4.20
2022-10-31T00:37:27.288Z,4.50
2022-10-31T00:38:27.253Z,4.00
2022-10-31T00:39:27.246Z,4.20
2022-10-31T00:40:27.227Z,4.20
2022-10-31T00:41:27.250Z,4.40
2022-10-31T00:42:27.187Z,4.10
2022-10-31T00:43:27.181Z,4.30
2022-10-31T00:44:27.146Z,4.30
2022-10-31T00:45:27.147Z,4.50
2022-10-31T00:46:27.166Z,4.40
2022-10-31T00:47:27.107Z,4.30
2022-10-31T00:48:27.089Z,4.20
2022-10-31T00:49:27.120Z,4.10
2022-10-31T00:50:27.050Z,4.60
2022-10-31T00:51:27.089Z,4.00
2022-10-31T00:52:27.011Z,4.50
2022-10-31T00:53:27.000Z,4.40
2022-10-31T00:54:27.173Z,4.00
2022-10-31T00:55:27.056Z,4.50
2022-10-31T00:56:27.993Z,4.70
2022-10-31T00:57:26.942Z,4.30
2022-10-31T00:58:26.927Z,4.50
2022-10-31T00:59:26.898Z,3.80
2022-10-31T01:00:26.892Z,4.40
2022-10-31T01:01:27.042Z,4.30
2022-10-31T01:02:26.926Z,4.60
2022-10-31T01:03:26.842Z,4.50
2022-10-31T01:04:26.819Z,4.50
2022-10-31T01:05:26.824Z,4.60
2022-10-31T01:06:26.836Z,5.00
2022-10-31T01:07:26.789Z,4.60
2022-10-31T01:08:26.755Z,4.60
2022-10-31T01:09:26.747Z,4.80
2022-10-31T01:10:26.715Z,4.80
2022-10-31T01:11:26.731Z,4.60
2022-10-31T01:12:26.754Z,4.60
2022-10-31T01:13:26.672Z,4.60
2022-10-31T01:14:26.656Z,4.50
2022-10-31T01:15:26.634Z,4.60
2022-10-31T01:16:26.653Z,4.60
2022-10-31T01:17:26.608Z,4.50
2022-10-31T01:18:26.742Z,4.50
2022-10-31T01:19:26.677Z,4.60
2022-10-31T01:20:26.638Z,4.30
2022-10-31T01:21:26.576Z,4.70
2022-10-31T01:22:26.531Z,4.10
2022-10-31T01:23:26.510Z,4.40
2022-10-31T01:24:26.497Z,4.60
2022-10-31T01:25:26.470Z,4.90
2022-10-31T01:26:26.498Z,4.90
2022-10-31T01:27:26.435Z,4.40
2022-10-31T01:29:27.407Z,4.70
2022-10-31T01:30:26.388Z,4.80
2022-10-31T01:31:26.400Z,4.60
2022-10-31T01:32:27.363Z,4.40
2022-10-31T01:33:26.359Z,4.80
2022-10-31T01:34:26.387Z,4.50
2022-10-31T01:35:26.357Z,4.50
2022-10-31T01:36:26.322Z,4.70
2022-10-31T01:37:26.275Z,4.90
2022-10-31T01:38:26.262Z,4.70
2022-10-31T01:39:26.278Z,4.80
2022-10-31T01:40:26.218Z,5.10
2022-10-31T01:41:26.241Z,4.90
2022-10-31T01:42:26.192Z,4.80
2022-10-31T01:43:26.177Z,5.50
2022-10-31T01:44:26.148Z,4.80
2022-10-31T01:45:27.134Z,4.90
2022-10-31T01:46:26.147Z,5.20
2022-10-31T01:47:26.098Z,5.00
2022-10-31T01:48:26.095Z,4.90
2022-10-31T01:49:26.082Z,4.90
2022-10-31T01:50:26.054Z,4.90
2022-10-31T01:51:26.071Z,5.50
2022-10-31T01:52:26.020Z,5.10
2022-10-31T01:53:27.028Z,5.10
2022-10-31T01:54:26.985Z,5.10
2022-10-31T01:55:26.498Z,5.20
2022-10-31T01:56:25.952Z,5.10
2022-10-31T01:57:25.965Z,5.00
2022-10-31T01:58:25.967Z,4.70
2022-10-31T01:59:25.914Z,5.00
2022-10-31T02:00:25.888Z,5.20
2022-10-31T02:01:26.062Z,5.10
2022-10-31T02:02:25.956Z,5.10
2022-10-31T02:03:25.842Z,5.20
2022-10-31T02:04:25.817Z,5.40
2022-10-31T02:05:25.808Z,4.80
2022-10-31T02:06:25.831Z,5.20
2022-10-31T02:07:25.768Z,4.90
2022-10-31T02:08:25.765Z,4.80
2022-10-31T02:09:25.745Z,4.80
2022-10-31T02:10:25.730Z,4.90
2022-10-31T02:11:25.740Z,4.90
2022-10-31T02:12:25.694Z,4.90
2022-10-31T02:14:25.659Z,4.90
2022-10-31T02:15:25.676Z,5.00
2022-10-31T02:16:25.645Z,5.10
2022-10-31T02:17:25.618Z,5.20
2022-10-31T02:18:25.588Z,4.90
2022-10-31T02:19:25.562Z,4.90
2022-10-31T02:20:25.547Z,4.80
2022-10-31T02:21:25.566Z,4.70
2022-10-31T02:22:25.507Z,4.90
2022-10-31T02:23:25.666Z,5.00
2022-10-31T02:24:25.475Z,5.00
2022-10-31T02:25:25.480Z,5.00
2022-10-31T02:26:25.485Z,5.40
2022-10-31T02:27:25.434Z,5.30
2022-10-31T02:28:26.419Z,5.30
2022-10-31T02:29:25.407Z,6.40
2022-10-31T02:30:25.404Z,6.40
2022-10-31T02:31:25.434Z,6.30
2022-10-31T02:32:25.377Z,6.60
2022-10-31T02:33:26.332Z,7.40
2022-10-31T02:34:25.309Z,8.10
2022-10-31T02:35:25.296Z,7.60
2022-10-31T02:36:25.316Z,7.10
2022-10-31T02:37:25.258Z,7.60
2022-10-31T02:38:25.246Z,7.60
2022-10-31T02:39:25.223Z,7.50
2022-10-31T02:40:25.210Z,7.60
2022-10-31T02:41:25.232Z,8.30
2022-10-31T02:42:25.191Z,7.50
2022-10-31T02:43:25.158Z,7.60
2022-10-31T02:44:25.149Z,7.50
2022-10-31T02:45:25.129Z,7.40
2022-10-31T02:46:25.151Z,7.90
2022-10-31T02:47:25.092Z,8.30
2022-10-31T02:48:25.083Z,8.50
2022-10-31T02:49:25.067Z,7.90
2022-10-31T02:50:25.043Z,8.30
2022-10-31T02:51:25.037Z,8.60
2022-10-31T02:52:25.042Z,8.40
2022-10-31T02:53:25.010Z,8.20
2022-10-31T02:54:24.974Z,8.40
2022-10-31T02:55:24.982Z,8.20
2022-10-31T02:56:24.942Z,8.20
2022-10-31T02:57:24.954Z,8.00
2022-10-31T02:58:24.912Z,8.60
2022-10-31T02:59:24.902Z,8.30
2022-10-31T03:00:25.011Z,7.90
2022-10-31T03:01:24.947Z,8.50
2022-10-31T03:02:25.025Z,8.30
2022-10-31T03:03:24.824Z,9.00
2022-10-31T03:04:24.803Z,9.20
2022-10-31T03:05:24.789Z,8.80
2022-10-31T03:06:24.774Z,10.10
2022-10-31T03:07:24.797Z,11.80
2022-10-31T03:08:24.759Z,15.10
2022-10-31T03:09:24.725Z,16.50
2022-10-31T03:10:24.714Z,16.10
2022-10-31T03:11:24.702Z,15.90
2022-10-31T03:12:24.769Z,15.50
2022-10-31T03:13:24.662Z,14.40
2022-10-31T03:14:24.643Z,16.10
2022-10-31T03:15:24.620Z,16.50
2022-10-31T03:16:24.605Z,15.20
2022-10-31T03:17:24.616Z,15.30
2022-10-31T03:18:24.578Z,15.60
2022-10-31T03:19:24.568Z,15.10
2022-10-31T03:20:24.558Z,16.10
2022-10-31T03:21:24.529Z,16.70
2022-10-31T03:22:24.549Z,17.00
2022-10-31T03:23:24.496Z,19.40
2022-10-31T03:24:24.464Z,19.50
2022-10-31T03:25:24.464Z,20.30
2022-10-31T03:26:24.437Z,20.10
2022-10-31T03:27:24.452Z,22.10
2022-10-31T03:28:24.408Z,22.20
2022-10-31T03:29:25.027Z,21.20
2022-10-31T03:30:24.365Z,22.30
2022-10-31T03:31:24.359Z,21.60
2022-10-31T03:32:24.371Z,22.90
2022-10-31T03:33:24.318Z,19.40
2022-10-31T03:34:24.292Z,20.70
2022-10-31T03:35:24.287Z,20.90
2022-10-31T03:36:24.262Z,20.20
2022-10-31T03:37:24.292Z,20.20
2022-10-31T03:38:24.218Z,20.00
2022-10-31T03:39:25.219Z,21.20
2022-10-31T03:40:24.225Z,20.40
2022-10-31T03:41:24.185Z,20.80
2022-10-31T03:42:24.190Z,20.60
2022-10-31T03:43:24.214Z,20.40
2022-10-31T03:44:24.138Z,20.20
2022-10-31T03:45:24.105Z,20.60
2022-10-31T03:46:24.090Z,20.60
2022-10-31T03:47:24.105Z,21.60
2022-10-31T03:48:24.054Z,21.80
2022-10-31T03:49:24.031Z,22.20
2022-10-31T03:50:24.023Z,21.80
2022-10-31T03:51:24.000Z,20.50
2022-10-31T03:52:24.012Z,20.00
2022-10-31T03:53:24.021Z,21.40
2022-10-31T03:54:23.946Z,21.30
2022-10-31T03:55:23.931Z,21.80
2022-10-31T03:56:23.913Z,23.50
2022-10-31T03:57:23.934Z,22.40
2022-10-31T03:58:23.916Z,21.60
2022-10-31T03:59:23.881Z,23.50
2022-10-31T04:00:23.907Z,22.40
2022-10-31T04:01:24.011Z,23.40
2022-10-31T04:02:24.039Z,22.60
2022-10-31T04:03:23.808Z,22.20
2022-10-31T04:04:23.814Z,21.90
2022-10-31T04:05:23.768Z,22.80
2022-10-31T04:06:23.760Z,22.80
2022-10-31T04:07:23.777Z,22.70
2022-10-31T04:08:23.717Z,23.60
2022-10-31T04:09:23.695Z,23.00
2022-10-31T04:10:26.237Z,22.80
2022-10-31T04:11:23.663Z,22.80
2022-10-31T04:12:23.789Z,23.40
2022-10-31T04:13:23.630Z,22.80
2022-10-31T04:14:23.622Z,22.80
2022-10-31T04:15:23.596Z,22.70
2022-10-31T04:16:23.585Z,22.60
2022-10-31T04:17:23.604Z,23.20
2022-10-31T04:18:23.549Z,22.00
2022-10-31T04:19:23.522Z,24.40
2022-10-31T04:20:23.518Z,24.20
2022-10-31T04:21:23.497Z,23.10
2022-10-31T04:22:23.671Z,25.40
2022-10-31T04:23:23.468Z,24.10
2022-10-31T04:24:23.444Z,24.20
2022-10-31T04:25:23.414Z,24.60
2022-10-31T04:26:23.414Z,24.70
2022-10-31T04:27:23.412Z,23.10
2022-10-31T04:28:23.464Z,23.70
2022-10-31T04:29:23.352Z,23.60
2022-10-31T04:30:23.370Z,24.70
2022-10-31T04:31:23.329Z,23.20
2022-10-31T04:32:23.334Z,24.30
2022-10-31T04:33:23.392Z,25.20
2022-10-31T04:34:23.260Z,24.30
2022-10-31T04:35:23.234Z,23.30
2022-10-31T04:36:23.218Z,24.00
2022-10-31T04:37:23.279Z,24.00
2022-10-31T04:38:23.403Z,25.30
2022-10-31T04:39:26.711Z,23.50
2022-10-31T04:40:23.154Z,24.60
2022-10-31T04:41:23.149Z,24.60
2022-10-31T04:42:23.159Z,25.30
2022-10-31T04:43:23.114Z,23.50
2022-10-31T04:44:23.084Z,23.90
2022-10-31T04:45:23.077Z,24.00
2022-10-31T04:46:23.191Z,23.30
2022-10-31T04:47:23.147Z,22.90
2022-10-31T04:48:23.089Z,23.10
2022-10-31T04:49:23.076Z,23.90
2022-10-31T04:50:23.012Z,21.90
2022-10-31T04:51:22.963Z,23.10
2022-10-31T04:52:22.978Z,22.60
2022-10-31T04:53:22.957Z,22.60
2022-10-31T04:54:23.004Z,22.10
2022-10-31T04:55:22.902Z,20.90
2022-10-31T04:56:22.890Z,22.00
2022-10-31T04:57:22.972Z,20.50
2022-10-31T04:58:23.066Z,20.50
2022-10-31T04:59:22.914Z,20.20
2022-10-31T05:00:22.822Z,21.10
2022-10-31T05:01:22.948Z,20.00
2022-10-31T05:02:23.026Z,20.20
2022-10-31T05:03:22.769Z,20.00
2022-10-31T05:04:22.745Z,19.60
2022-10-31T05:05:22.756Z,19.40
2022-10-31T05:06:22.705Z,19.40
2022-10-31T05:07:22.862Z,19.30
2022-10-31T05:08:22.865Z,20.00
2022-10-31T05:09:22.780Z,20.70
2022-10-31T05:10:22.643Z,19.00
2022-10-31T05:11:22.616Z,28.00
2022-10-31T05:12:22.656Z,23.00
2022-10-31T05:13:22.808Z,22.20
2022-10-31T05:14:22.569Z,21.40
2022-10-31T05:15:22.566Z,20.70
2022-10-31T05:16:22.540Z,21.60
2022-10-31T05:17:22.553Z,21.10
2022-10-31T05:18:22.500Z,21.00
2022-10-31T05:19:22.492Z,21.20
2022-10-31T05:20:22.524Z,21.90
2022-10-31T05:21:22.450Z,21.30
2022-10-31T05:22:22.473Z,22.90
2022-10-31T05:23:48.833Z,21.80
2022-10-31T05:24:22.471Z,22.80
2022-10-31T05:25:22.372Z,22.10
2022-10-31T05:26:22.363Z,22.10
2022-10-31T05:27:22.385Z,22.50
2022-10-31T05:28:22.335Z,22.40
2022-10-31T05:29:22.307Z,23.70
2022-10-31T05:30:22.303Z,22.90
2022-10-31T05:31:22.272Z,23.90
2022-10-31T05:32:22.281Z,24.20
2022-10-31T05:33:22.237Z,23.90
2022-10-31T05:34:22.229Z,23.30
2022-10-31T05:35:22.198Z,23.80
2022-10-31T05:36:22.190Z,22.30
2022-10-31T05:37:22.229Z,24.10
2022-10-31T05:38:22.156Z,23.30
2022-10-31T05:39:22.134Z,23.20
2022-10-31T05:40:22.122Z,23.40
2022-10-31T05:41:22.104Z,24.00
2022-10-31T05:42:22.132Z,23.00
2022-10-31T05:43:22.069Z,23.00
2022-10-31T05:44:22.050Z,23.70
2022-10-31T05:45:22.043Z,23.20
2022-10-31T05:46:22.110Z,23.30
2022-10-31T05:47:22.024Z,24.50
2022-10-31T05:48:22.017Z,23.20
2022-10-31T05:49:21.979Z,23.40
2022-10-31T05:50:21.943Z,23.40
2022-10-31T05:51:21.936Z,24.30
2022-10-31T05:52:21.943Z,24.80
2022-10-31T05:53:21.899Z,23.90
2022-10-31T05:54:21.877Z,25.40
2022-10-31T05:55:21.869Z,25.00
2022-10-31T05:56:21.975Z,24.40
2022-10-31T05:57:21.874Z,24.80
2022-10-31T05:58:21.860Z,25.20
2022-10-31T05:59:21.846Z,25.60
2022-10-31T06:00:21.798Z,27.90
2022-10-31T06:01:21.813Z,26.60
2022-10-31T06:02:21.776Z,28.20
2022-10-31T06:03:21.734Z,28.80
2022-10-31T06:04:22.793Z,26.90
2022-10-31T06:05:21.721Z,27.00
2022-10-31T06:06:21.688Z,26.90
2022-10-31T06:07:21.691Z,27.20
2022-10-31T06:08:21.654Z,27.60
2022-10-31T06:09:21.629Z,28.80
2022-10-31T06:10:21.670Z,28.20
2022-10-31T06:11:21.689Z,27.20
2022-10-31T06:12:21.611Z,28.10
2022-10-31T06:13:21.548Z,26.70
2022-10-31T06:14:21.682Z,26.40
2022-10-31T06:15:24.545Z,25.90
2022-10-31T06:16:22.504Z,26.80
2022-10-31T06:17:21.747Z,25.90
2022-10-31T06:18:21.461Z,25.40
2022-10-31T06:19:21.462Z,26.60
2022-10-31T06:20:21.432Z,25.70
2022-10-31T06:21:21.430Z,27.10
2022-10-31T06:22:21.402Z,26.90
2022-10-31T06:23:21.554Z,25.90
2022-10-31T06:24:21.376Z,27.90
2022-10-31T06:25:21.354Z,26.40
2022-10-31T06:26:21.331Z,25.70
2022-10-31T06:27:21.315Z,26.60
2022-10-31T06:28:21.350Z,26.30
2022-10-31T06:29:21.276Z,25.70
2022-10-31T06:30:21.253Z,25.30
2022-10-31T06:31:21.240Z,26.90
2022-10-31T06:32:21.222Z,26.10
2022-10-31T06:33:21.254Z,26.90
2022-10-31T06:34:21.223Z,27.20
2022-10-31T06:35:21.179Z,26.30
2022-10-31T06:36:21.247Z,26.60
2022-10-31T06:37:21.146Z,24.60
2022-10-31T06:38:21.181Z,26.30
2022-10-31T06:39:21.137Z,26.10
2022-10-31T06:40:21.097Z,27.10
2022-10-31T06:41:21.076Z,25.60
2022-10-31T06:42:21.061Z,26.00
2022-10-31T06:43:21.082Z,26.40
2022-10-31T06:44:21.034Z,26.90
2022-10-31T06:45:21.035Z,27.40
2022-10-31T06:46:21.004Z,26.50
2022-10-31T06:47:20.988Z,25.20
2022-10-31T06:48:21.568Z,26.10
2022-10-31T06:49:20.969Z,26.00
2022-10-31T06:50:20.922Z,25.00
2022-10-31T06:51:20.915Z,23.90
2022-10-31T06:52:20.888Z,24.90
2022-10-31T06:53:20.906Z,25.70
2022-10-31T06:54:20.851Z,23.40
2022-10-31T06:55:20.846Z,23.90
2022-10-31T06:56:20.822Z,23.60
2022-10-31T06:57:20.803Z,25.50
2022-10-31T06:58:20.839Z,26.40
2022-10-31T06:59:21.001Z,25.20
2022-10-31T07:00:20.756Z,25.30
2022-10-31T07:01:20.864Z,25.40
2022-10-31T07:02:20.802Z,25.50
2022-10-31T07:03:20.745Z,23.80
2022-10-31T07:04:20.701Z,25.60
2022-10-31T07:05:20.659Z,25.50
2022-10-31T07:06:20.662Z,25.30
2022-10-31T07:07:20.630Z,24.90
2022-10-31T07:08:20.643Z,24.90
2022-10-31T07:09:20.597Z,24.50
2022-10-31T07:10:20.585Z,24.30
2022-10-31T07:11:20.609Z,23.90
2022-10-31T07:12:20.550Z,24.50
2022-10-31T07:13:20.563Z,23.40
2022-10-31T07:14:20.594Z,24.10
2022-10-31T07:15:20.521Z,23.90
2022-10-31T07:16:20.493Z,24.10
2022-10-31T07:17:20.476Z,23.50
2022-10-31T07:18:20.491Z,22.80
2022-10-31T07:19:20.449Z,21.90
2022-10-31T07:20:20.410Z,22.00
2022-10-31T07:21:20.413Z,21.50
2022-10-31T07:22:20.379Z,21.90
2022-10-31T07:23:20.397Z,22.00
2022-10-31T07:24:20.343Z,21.00
2022-10-31T07:25:20.331Z,22.40
2022-10-31T07:26:20.308Z,21.70
2022-10-31T07:27:20.299Z,21.20
2022-10-31T07:28:20.303Z,22.60
2022-10-31T07:29:20.258Z,22.10
2022-10-31T07:30:20.238Z,22.20
2022-10-31T07:31:20.278Z,22.30
2022-10-31T07:32:20.208Z,22.10
2022-10-31T07:33:20.229Z,22.70
2022-10-31T07:34:20.185Z,23.30
2022-10-31T07:35:20.153Z,21.00
2022-10-31T07:36:20.155Z,22.00
2022-10-31T07:37:20.128Z,23.20
2022-10-31T07:38:20.137Z,23.20
2022-10-31T07:39:20.096Z,26.00
2022-10-31T07:40:20.084Z,28.10
2022-10-31T07:41:20.053Z,25.20
2022-10-31T07:42:20.058Z,26.40
2022-10-31T07:43:20.055Z,22.60
2022-10-31T07:44:20.003Z,21.50
2022-10-31T07:45:19.991Z,21.80
2022-10-31T07:46:19.974Z,21.20
2022-10-31T07:47:19.954Z,22.60
2022-10-31T07:48:19.984Z,20.90
2022-10-31T07:49:19.937Z,21.40
2022-10-31T07:50:19.908Z,20.20
2022-10-31T07:51:19.900Z,21.40
2022-10-31T07:52:19.888Z,20.20
2022-10-31T07:53:19.884Z,20.50
2022-10-31T07:54:19.934Z,21.20
2022-10-31T07:55:19.828Z,20.00
2022-10-31T07:56:20.354Z,20.10
2022-10-31T07:57:24.127Z,20.30
2022-10-31T07:58:21.825Z,20.80
2022-10-31T07:59:19.773Z,19.90
2022-10-31T08:00:19.750Z,20.90
2022-10-31T08:01:19.759Z,20.10
2022-10-31T08:02:19.721Z,21.30
2022-10-31T08:03:19.731Z,20.90
2022-10-31T08:04:19.678Z,20.60
2022-10-31T08:05:19.655Z,19.70
2022-10-31T08:06:19.707Z,19.70
2022-10-31T08:07:19.629Z,20.00
2022-10-31T08:08:19.641Z,20.40
2022-10-31T08:09:19.588Z,20.00
2022-10-31T08:10:19.572Z,20.00
2022-10-31T08:11:19.918Z,19.70
2022-10-31T08:12:19.567Z,20.80
2022-10-31T08:13:19.557Z,20.30
2022-10-31T08:14:19.514Z,19.40
2022-10-31T08:15:19.508Z,20.30
2022-10-31T08:16:19.476Z,20.10
2022-10-31T08:17:19.484Z,19.90
2022-10-31T08:18:19.479Z,19.60
2022-10-31T08:19:19.427Z,20.90
2022-10-31T08:20:19.412Z,20.80
2022-10-31T08:21:19.400Z,20.10
2022-10-31T08:22:19.390Z,20.30
2022-10-31T08:23:19.463Z,20.00
2022-10-31T08:24:19.388Z,20.60
2022-10-31T08:25:19.327Z,20.50
2022-10-31T08:26:19.321Z,19.70
2022-10-31T08:27:19.357Z,18.90
2022-10-31T08:28:19.310Z,18.40
2022-10-31T08:29:19.265Z,18.70
2022-10-31T08:30:19.263Z,18.20
2022-10-31T08:31:19.232Z,19.50
2022-10-31T08:32:19.215Z,19.40
2022-10-31T08:33:19.233Z,18.40
2022-10-31T08:34:19.187Z,18.60
2022-10-31T08:35:19.181Z,19.20
2022-10-31T08:36:19.161Z,17.80
2022-10-31T08:37:19.147Z,19.30
2022-10-31T08:38:19.186Z,18.60
2022-10-31T08:39:19.136Z,18.10
2022-10-31T08:40:19.129Z,18.20
2022-10-31T08:41:19.078Z,18.50
2022-10-31T08:42:19.079Z,18.10
2022-10-31T08:43:19.085Z,18.20
2022-10-31T08:44:19.041Z,17.70
2022-10-31T08:45:19.023Z,18.50
2022-10-31T08:46:19.017Z,18.60
2022-10-31T08:47:18.989Z,17.90
2022-10-31T08:48:19.016Z,17.90
2022-10-31T08:49:18.960Z,18.40
2022-10-31T08:50:18.939Z,19.70
2022-10-31T08:51:18.937Z,19.00
2022-10-31T08:52:18.900Z,19.00
2022-10-31T08:53:18.932Z,20.30
2022-10-31T08:54:18.878Z,18.80
2022-10-31T08:55:18.862Z,18.40
2022-10-31T08:56:18.856Z,18.80
2022-10-31T08:57:18.828Z,19.10
2022-10-31T08:58:18.933Z,19.90
2022-10-31T08:59:18.806Z,18.10
2022-10-31T09:00:18.804Z,19.70
2022-10-31T09:01:18.950Z,19.20
2022-10-31T09:02:18.783Z,19.00
2022-10-31T09:03:18.787Z,19.20
2022-10-31T09:04:18.743Z,18.70
2022-10-31T09:05:18.723Z,18.90
2022-10-31T09:06:18.756Z,18.90
2022-10-31T09:07:20.886Z,18.20
2022-10-31T09:08:19.693Z,18.40
2022-10-31T09:09:18.655Z,18.90
2022-10-31T09:10:18.635Z,18.80
2022-10-31T09:11:18.632Z,18.10
2022-10-31T09:12:18.619Z,18.20
2022-10-31T09:13:18.629Z,18.70
2022-10-31T09:14:18.575Z,18.20
2022-10-31T09:15:18.577Z,18.10
2022-10-31T09:16:18.547Z,18.20
2022-10-31T09:17:18.539Z,17.90
2022-10-31T09:18:18.558Z,18.60
2022-10-31T09:19:18.510Z,17.90
2022-10-31T09:20:18.484Z,16.50
2022-10-31T09:21:18.474Z,17.70
2022-10-31T09:22:18.450Z,18.10
2022-10-31T09:23:18.461Z,17.40
2022-10-31T09:24:18.420Z,17.80
2022-10-31T09:25:18.408Z,18.10
2022-10-31T09:26:18.407Z,18.00
2022-10-31T09:27:18.379Z,17.60
2022-10-31T09:28:18.393Z,17.60
2022-10-31T09:29:18.356Z,17.20
2022-10-31T09:30:18.336Z,17.20
2022-10-31T09:31:18.314Z,17.20
2022-10-31T09:32:18.293Z,16.70
2022-10-31T09:33:19.326Z,17.60
2022-10-31T09:34:18.275Z,17.10
2022-10-31T09:35:20.421Z,17.10
2022-10-31T09:36:18.244Z,17.10
2022-10-31T09:37:18.227Z,16.90
2022-10-31T09:38:18.232Z,16.30
2022-10-31T09:39:18.194Z,16.60
2022-10-31T09:40:18.189Z,17.20
2022-10-31T09:41:18.165Z,17.30
2022-10-31T09:42:18.172Z,16.70
2022-10-31T09:43:18.162Z,17.70
2022-10-31T09:44:18.124Z,17.10
2022-10-31T09:45:50.484Z,17.40
2022-10-31T09:46:18.093Z,17.60
2022-10-31T09:47:18.087Z,17.80
2022-10-31T09:48:18.095Z,17.00
2022-10-31T09:49:18.184Z,16.30
2022-10-31T09:50:18.161Z,16.70
2022-10-31T09:51:18.019Z,17.80
2022-10-31T09:52:17.998Z,17.80
2022-10-31T09:53:18.033Z,17.20
2022-10-31T09:54:17.961Z,16.40
2022-10-31T09:55:19.214Z,18.00
2022-10-31T09:56:18.948Z,17.00
2022-10-31T09:57:17.931Z,17.20
2022-10-31T09:58:18.187Z,17.00
2022-10-31T09:59:17.896Z,17.30
2022-10-31T10:00:17.872Z,17.00
2022-10-31T10:01:17.940Z,17.30
2022-10-31T10:02:17.879Z,16.40
2022-10-31T10:03:17.821Z,16.50
2022-10-31T10:04:20.757Z,18.60
2022-10-31T10:05:18.112Z,17.50
2022-10-31T10:06:18.594Z,17.00
2022-10-31T10:07:17.777Z,17.10
2022-10-31T10:08:17.833Z,17.20
2022-10-31T10:09:17.781Z,16.40
2022-10-31T10:10:17.716Z,16.40
2022-10-31T10:11:17.696Z,16.10
2022-10-31T10:12:17.683Z,16.90
2022-10-31T10:13:17.787Z,16.30
2022-10-31T10:14:17.684Z,16.00
2022-10-31T10:15:17.641Z,16.40
2022-10-31T10:16:17.621Z,16.20
2022-10-31T10:17:17.605Z,15.50
2022-10-31T10:18:17.591Z,17.00
2022-10-31T10:19:17.593Z,16.00
2022-10-31T10:20:20.778Z,16.70
2022-10-31T10:21:18.558Z,16.20
2022-10-31T10:22:17.531Z,15.20
2022-10-31T10:23:17.519Z,16.40
2022-10-31T10:24:17.522Z,16.90
2022-10-31T10:25:17.470Z,16.90
2022-10-31T10:26:17.548Z,15.80
2022-10-31T10:27:20.611Z,16.10
2022-10-31T10:28:18.420Z,16.60
2022-10-31T10:29:17.547Z,16.50
2022-10-31T10:30:17.401Z,15.70
2022-10-31T10:31:17.427Z,17.10
2022-10-31T10:32:17.359Z,16.70
2022-10-31T10:33:17.460Z,16.70
2022-10-31T10:34:17.354Z,17.40
2022-10-31T10:35:17.308Z,16.80
2022-10-31T10:36:17.316Z,17.20
2022-10-31T10:37:17.271Z,16.40
2022-10-31T10:38:17.273Z,16.00
2022-10-31T10:39:17.291Z,16.60
2022-10-31T10:40:17.232Z,14.90
2022-10-31T10:41:17.208Z,15.80
2022-10-31T10:42:17.192Z,16.70
2022-10-31T10:43:17.180Z,16.60
2022-10-31T10:44:17.206Z,16.40
2022-10-31T10:45:17.219Z,16.90
2022-10-31T10:46:17.138Z,16.50
2022-10-31T10:47:17.124Z,14.70
2022-10-31T10:48:17.092Z,14.00
2022-10-31T10:49:17.180Z,14.60
2022-10-31T10:50:17.076Z,13.70
2022-10-31T10:51:25.736Z,13.90
2022-10-31T10:52:39.644Z,13.50
2022-10-31T10:53:19.020Z,13.60
2022-10-31T10:54:17.024Z,14.50
2022-10-31T10:55:16.992Z,15.80
2022-10-31T10:56:16.981Z,15.90
2022-10-31T10:57:16.946Z,16.30
2022-10-31T10:58:50.391Z,15.10
2022-10-31T10:59:16.919Z,15.90
2022-10-31T11:00:16.909Z,16.20
2022-10-31T11:01:17.905Z,15.50
2022-10-31T11:02:16.886Z,15.30
2022-10-31T11:03:16.982Z,16.30
2022-10-31T11:04:17.669Z,14.90
2022-10-31T11:05:16.840Z,15.60
2022-10-31T11:06:16.844Z,16.10
2022-10-31T11:07:16.802Z,15.10
2022-10-31T11:08:16.772Z,15.70
2022-10-31T11:09:16.883Z,14.70
2022-10-31T11:10:16.762Z,13.90
2022-10-31T11:11:16.748Z,14.30
2022-10-31T11:12:16.712Z,14.20
2022-10-31T11:13:16.704Z,14.00
2022-10-31T11:14:16.717Z,14.10
2022-10-31T11:15:16.805Z,13.70
2022-10-31T11:16:16.662Z,13.00
2022-10-31T11:17:16.636Z,12.20
2022-10-31T11:18:16.647Z,12.90
2022-10-31T11:19:16.915Z,11.60
2022-10-31T11:20:19.064Z,11.00
2022-10-31T11:21:16.595Z,12.20
2022-10-31T11:22:16.557Z,11.70
2022-10-31T11:23:17.665Z,12.30
2022-10-31T11:24:16.651Z,11.10
2022-10-31T11:25:16.548Z,10.90
2022-10-31T11:26:16.506Z,11.30
2022-10-31T11:27:16.488Z,11.60
2022-10-31T11:28:16.508Z,10.80
2022-10-31T11:29:16.513Z,10.90
2022-10-31T11:30:16.481Z,11.10
2022-10-31T11:31:16.437Z,10.80
2022-10-31T11:32:16.494Z,11.80
2022-10-31T11:33:16.542Z,11.10
2022-10-31T11:34:16.396Z,11.80
2022-10-31T11:35:16.354Z,11.90
2022-10-31T11:36:16.345Z,12.40
2022-10-31T11:37:16.318Z,11.60
2022-10-31T11:38:16.332Z,12.00
2022-10-31T11:39:16.319Z,11.60
2022-10-31T11:40:16.337Z,11.90
2022-10-31T11:41:16.269Z,12.00
2022-10-31T11:42:16.251Z,11.50
2022-10-31T11:43:16.232Z,11.90
2022-10-31T11:44:16.254Z,12.50
2022-10-31T11:45:16.200Z,11.60
2022-10-31T11:46:16.171Z,12.00
2022-10-31T11:47:16.162Z,12.10
2022-10-31T11:48:16.139Z,12.40
2022-10-31T11:49:16.945Z,11.50
2022-10-31T11:50:17.110Z,10.60
2022-10-31T11:51:16.095Z,10.90
2022-10-31T11:52:16.090Z,11.20
2022-10-31T11:53:16.072Z,11.50
2022-10-31T11:54:16.080Z,11.20
2022-10-31T11:55:16.024Z,11.00
2022-10-31T11:56:16.077Z,11.30
2022-10-31T11:57:15.989Z,11.80
2022-10-31T11:58:16.997Z,11.60
2022-10-31T11:59:16.000Z,11.90
2022-10-31T12:00:16.098Z,11.30
2022-10-31T12:01:15.999Z,11.20
2022-10-31T12:02:16.025Z,11.30
2022-10-31T12:03:15.890Z,10.70
2022-10-31T12:04:16.456Z,10.90
2022-10-31T12:05:15.887Z,10.70
2022-10-31T12:06:15.851Z,10.80
2022-10-31T12:07:16.832Z,11.00
2022-10-31T12:08:15.888Z,11.30
2022-10-31T12:09:15.824Z,10.10
2022-10-31T12:10:15.891Z,10.30
2022-10-31T12:11:15.770Z,11.00
2022-10-31T12:12:15.738Z,10.30
2022-10-31T12:13:15.724Z,10.40
2022-10-31T12:14:15.736Z,10.00
2022-10-31T12:15:15.708Z,10.00
2022-10-31T12:16:15.722Z,9.70
2022-10-31T12:17:15.664Z,9.10
2022-10-31T12:18:15.663Z,9.20
2022-10-31T12:19:15.667Z,8.80
2022-10-31T12:20:15.690Z,9.20
2022-10-31T12:21:15.599Z,9.10
2022-10-31T12:22:15.589Z,8.90
2022-10-31T12:23:15.560Z,9.40
2022-10-31T12:24:15.570Z,9.70
2022-10-31T12:25:15.514Z,9.60
2022-10-31T12:26:15.505Z,9.40
2022-10-31T12:27:15.504Z,11.10
2022-10-31T12:28:15.497Z,9.40
2022-10-31T12:29:15.486Z,9.00
2022-10-31T12:30:15.507Z,9.40
2022-10-31T12:31:15.414Z,9.50
2022-10-31T12:32:15.399Z,9.20
2022-10-31T12:33:15.377Z,9.00
2022-10-31T12:34:15.407Z,8.90
2022-10-31T12:35:15.341Z,9.40
2022-10-31T12:36:16.344Z,9.10
2022-10-31T12:37:15.327Z,8.70
2022-10-31T12:38:15.340Z,9.60
2022-10-31T12:39:15.316Z,9.10
2022-10-31T12:40:15.339Z,9.30
2022-10-31T12:41:15.706Z,9.00
2022-10-31T12:42:15.263Z,8.60
2022-10-31T12:43:15.235Z,8.70
2022-10-31T12:44:15.290Z,8.50
2022-10-31T12:45:15.176Z,8.30
2022-10-31T12:46:15.160Z,9.00
2022-10-31T12:47:15.141Z,8.40
2022-10-31T12:48:15.132Z,7.90
2022-10-31T12:49:15.132Z,8.50
2022-10-31T12:50:16.087Z,8.10
2022-10-31T12:51:15.073Z,7.90
2022-10-31T12:52:15.055Z,7.80
2022-10-31T12:53:15.075Z,7.90
2022-10-31T12:54:15.048Z,8.10
2022-10-31T12:55:15.008Z,8.60
2022-10-31T12:56:14.994Z,8.30
2022-10-31T12:57:14.988Z,8.10
2022-10-31T12:58:15.007Z,8.80
2022-10-31T12:59:15.075Z,8.90
2022-10-31T13:00:14.924Z,8.40
2022-10-31T13:01:15.036Z,9.00
2022-10-31T13:02:14.983Z,8.10